Time;durP1;ratioP1;P1;durP2;ratioP2;P2;SDS_P1;SDS_P2;PMS_P1;PMS_P2;Temp;Humidity;BMP_temperature;BMP_pressure;BME280_temperature;BME280_humidity;BME280_pressure;Samples;Min_cycle;Max_cycle;Signal;HPM_P1;HPM_P2
2023/04/07 00:00:55;;;;;;;;;;;7.00;90.50;;;;;;4997552;28;19986;-62
2023/04/07 00:03:22;;;;;;;;;;;7.10;90.20;;;;;;4997515;28;19978;-62
2023/04/07 00:05:47;;;;;;;;;;;7.20;88.60;;;;;;4997539;28;19999;-62
2023/04/07 00:08:13;;;;;;;;;;;7.10;83.90;;;;;;4997712;28;19989;-62
2023/04/07 00:10:39;;;;;;;;;;;7.10;85.70;;;;;;4997696;28;20360;-62
2023/04/07 00:13:04;;;;;;;;;;;7.10;87.10;;;;;;4997208;28;20037;-62
2023/04/07 00:15:30;;;;;;;;;;;7.20;86.90;;;;;;4997364;28;19978;-62
2023/04/07 00:17:55;;;;;;;;;;;7.20;89.40;;;;;;4997127;28;20018;-62
2023/04/07 00:20:21;;;;;;;;;;;7.30;91.20;;;;;;4997290;28;19991;-61
2023/04/07 00:22:47;;;;;;;;;;;7.30;90.60;;;;;;4997277;28;20373;-62
2023/04/07 00:25:13;;;;;;;;;;;7.30;92.10;;;;;;4997193;28;19978;-62
2023/04/07 00:27:38;;;;;;;;;;;7.30;88.90;;;;;;4997129;28;19983;-62
2023/04/07 00:30:04;;;;;;;;;;;7.40;87.00;;;;;;4997132;28;20053;-62
2023/04/07 00:32:30;;;;;;;;;;;7.40;84.90;;;;;;4996796;28;20069;-61
2023/04/07 00:34:55;;;;;;;;;;;7.40;85.90;;;;;;4997178;28;20085;-62
2023/04/07 00:37:21;;;;;;;;;;;7.40;84.20;;;;;;4997288;28;19990;-62
2023/04/07 00:39:46;;;;;;;;;;;7.40;84.20;;;;;;4996890;28;20323;-61
2023/04/07 00:42:12;;;;;;;;;;;7.40;90.20;;;;;;4997176;28;19983;-61
2023/04/07 00:44:37;;;;;;;;;;;7.40;84.20;;;;;;4996893;28;20484;-62
2023/04/07 00:47:03;;;;;;;;;;;7.40;85.30;;;;;;4996663;28;20326;-62
2023/04/07 00:49:29;;;;;;;;;;;7.40;83.80;;;;;;4996573;28;20029;-63
2023/04/07 00:51:55;;;;;;;;;;;7.40;88.80;;;;;;4996752;28;19979;-62
2023/04/07 00:54:24;;;;;;;;;;;7.30;89.10;;;;;;4996720;28;19978;-61
2023/04/07 00:56:51;;;;;;;;;;;7.40;89.70;;;;;;4996454;28;20369;-62
2023/04/07 00:59:17;;;;;;;;;;;7.40;86.70;;;;;;4996565;28;19994;-62
2023/04/07 01:01:55;;;;;;;;;;;7.40;87.70;;;;;;4996429;28;19978;-61
2023/04/07 01:04:31;;;;;;;;;;;7.40;87.80;;;;;;4996356;28;20006;-63
2023/04/07 01:07:00;;;;;;;;;;;7.50;88.30;;;;;;4996749;28;19982;-62
2023/04/07 01:09:32;;;;;;;;;;;7.40;86.00;;;;;;4996527;28;20006;-62
2023/04/07 01:12:06;;;;;;;;;;;7.30;87.90;;;;;;4996193;28;20073;-63
2023/04/07 01:14:35;;;;;;;;;;;7.40;85.50;;;;;;4996230;28;19979;-62
2023/04/07 01:17:02;;;;;;;;;;;7.40;83.60;;;;;;4996073;28;19979;-61
2023/04/07 01:19:39;;;;;;;;;;;7.50;82.60;;;;;;4996232;28;19983;-62
2023/04/07 01:22:09;;;;;;;;;;;7.40;90.00;;;;;;4996124;28;19979;-63
2023/04/07 01:24:35;;;;;;;;;;;7.10;92.50;;;;;;4996125;28;20025;-62
2023/04/07 01:27:14;;;;;;;;;;;7.00;92.30;;;;;;4996105;28;19978;-62
2023/04/07 01:29:46;;;;;;;;;;;7.00;92.80;;;;;;4996020;28;20009;-61
2023/04/07 01:32:12;;;;;;;;;;;7.00;93.70;;;;;;4995765;28;20453;-63
2023/04/07 01:34:38;;;;;;;;;;;7.00;94.50;;;;;;4995877;28;20018;-63
2023/04/07 01:37:03;;;;;;;;;;;7.10;95.00;;;;;;4996181;28;20029;-63
2023/04/07 01:39:29;;;;;;;;;;;7.20;94.10;;;;;;4996130;28;19982;-62
2023/04/07 01:41:56;;;;;;;;;;;7.20;93.00;;;;;;4995700;28;20078;-62
2023/04/07 01:44:22;;;;;;;;;;;7.20;93.40;;;;;;4995777;28;19985;-61
2023/04/07 01:46:49;;;;;;;;;;;7.30;92.90;;;;;;4995017;28;19983;-61
2023/04/07 01:49:15;;;;;;;;;;;7.30;92.40;;;;;;4995530;28;20052;-62
2023/04/07 01:51:41;;;;;;;;;;;7.20;93.00;;;;;;4995705;28;20404;-61
2023/04/07 01:54:07;;;;;;;;;;;7.20;94.50;;;;;;4995679;28;19983;-62
2023/04/07 01:56:33;;;;;;;;;;;7.30;93.90;;;;;;4995446;28;19986;-61
2023/04/07 01:58:58;;;;;;;;;;;7.20;90.90;;;;;;4995558;28;19982;-62
2023/04/07 02:01:24;;;;;;;;;;;7.20;92.10;;;;;;4995748;28;19989;-61
2023/04/07 02:04:03;;;;;;;;;;;7.10;92.20;;;;;;4995400;28;20082;-62
2023/04/07 02:06:32;;;;;;;;;;;7.10;89.10;;;;;;4995326;28;19982;-62
2023/04/07 02:08:59;;;;;;;;;;;6.90;94.20;;;;;;4995280;28;20404;-61
2023/04/07 02:11:25;;;;;;;;;;;6.80;93.20;;;;;;4995185;28;20014;-61
2023/04/07 02:13:52;;;;;;;;;;;6.70;94.50;;;;;;4994814;28;20497;-62
2023/04/07 02:16:18;;;;;;;;;;;6.60;95.20;;;;;;4995232;28;20026;-60
2023/04/07 02:18:45;;;;;;;;;;;6.60;95.20;;;;;;4995274;28;19990;-62
2023/04/07 02:21:13;;;;;;;;;;;6.60;95.10;;;;;;4995100;28;20022;-62
2023/04/07 02:23:39;;;;;;;;;;;6.50;96.00;;;;;;4995286;28;19983;-61
2023/04/07 02:26:05;;;;;;;;;;;6.50;95.60;;;;;;4994803;28;20345;-60
2023/04/07 02:28:30;;;;;;;;;;;6.50;95.50;;;;;;4994974;28;19982;-62
2023/04/07 02:30:56;;;;;;;;;;;6.60;94.80;;;;;;4994920;28;20409;-63
2023/04/07 02:33:22;;;;;;;;;;;6.70;91.30;;;;;;4995062;28;19990;-61
2023/04/07 02:35:47;;;;;;;;;;;6.90;86.40;;;;;;4995083;28;20477;-62
2023/04/07 02:38:13;;;;;;;;;;;7.10;76.70;;;;;;4994865;28;20441;-62
2023/04/07 02:40:38;;;;;;;;;;;7.30;68.70;;;;;;4994693;28;20070;-62
2023/04/07 02:43:04;;;;;;;;;;;7.40;69.10;;;;;;4994400;28;19978;-62
2023/04/07 02:45:30;;;;;;;;;;;7.40;65.70;;;;;;4994907;28;19978;-63
2023/04/07 02:47:55;;;;;;;;;;;7.50;64.90;;;;;;4994686;28;19986;-61
2023/04/07 02:50:21;;;;;;;;;;;7.60;65.30;;;;;;4994412;28;20006;-62
2023/04/07 02:52:46;;;;;;;;;;;7.60;62.40;;;;;;4994549;28;19986;-61
2023/04/07 02:55:12;;;;;;;;;;;7.60;63.00;;;;;;4994586;28;19985;-61
2023/04/07 02:57:37;;;;;;;;;;;7.70;61.90;;;;;;4993557;28;19986;-62
2023/04/07 03:00:03;;;;;;;;;;;7.70;61.40;;;;;;4994393;28;19979;-63
2023/04/07 03:02:29;;;;;;;;;;;7.80;62.30;;;;;;4994358;28;19982;-63
2023/04/07 03:04:54;;;;;;;;;;;7.70;65.50;;;;;;4994359;28;19994;-63
2023/04/07 03:07:20;;;;;;;;;;;7.60;65.10;;;;;;4994291;28;19985;-61
2023/04/07 03:09:46;;;;;;;;;;;7.70;63.30;;;;;;4994299;28;20006;-61
2023/04/07 03:12:11;;;;;;;;;;;7.70;62.40;;;;;;4993934;28;20040;-63
2023/04/07 03:14:37;;;;;;;;;;;7.80;61.60;;;;;;4994217;28;19979;-61
2023/04/07 03:17:03;;;;;;;;;;;7.80;61.60;;;;;;4994327;28;20476;-61
2023/04/07 03:19:28;;;;;;;;;;;7.80;61.10;;;;;;4994267;28;20024;-61
2023/04/07 03:21:54;;;;;;;;;;;7.80;60.50;;;;;;4994155;28;20373;-63
2023/04/07 03:24:19;;;;;;;;;;;7.80;59.90;;;;;;4994271;28;20002;-61
2023/04/07 03:26:46;;;;;;;;;;;7.90;59.50;;;;;;4994127;28;20045;-61
2023/04/07 03:29:11;;;;;;;;;;;7.90;59.20;;;;;;4994045;28;20017;-62
2023/04/07 03:31:37;;;;;;;;;;;7.90;59.60;;;;;;4994175;28;20073;-61
2023/04/07 03:34:03;;;;;;;;;;;7.90;59.10;;;;;;4994203;28;19979;-63
2023/04/07 03:36:30;;;;;;;;;;;7.90;58.90;;;;;;4994148;28;19983;-62
2023/04/07 03:38:56;;;;;;;;;;;7.80;58.70;;;;;;4994087;28;20026;-63
2023/04/07 03:41:21;;;;;;;;;;;7.90;58.50;;;;;;4993827;28;19983;-63
2023/04/07 03:43:47;;;;;;;;;;;7.90;59.20;;;;;;4994093;28;19989;-61
2023/04/07 03:46:12;;;;;;;;;;;7.90;59.80;;;;;;4993977;28;20005;-61
2023/04/07 03:48:38;;;;;;;;;;;7.90;60.40;;;;;;4993863;28;20027;-61
2023/04/07 03:51:03;;;;;;;;;;;7.80;60.20;;;;;;4994070;28;19986;-61
2023/04/07 03:53:29;;;;;;;;;;;7.80;60.30;;;;;;4993844;28;19979;-63
2023/04/07 03:55:55;;;;;;;;;;;7.90;60.20;;;;;;4993793;28;20001;-63
2023/04/07 03:58:20;;;;;;;;;;;7.70;59.20;;;;;;4993898;28;20330;-61
2023/04/07 04:00:46;;;;;;;;;;;7.70;59.70;;;;;;4994141;28;20018;-62
2023/04/07 04:03:11;;;;;;;;;;;7.80;59.90;;;;;;4993987;28;20353;-63
2023/04/07 04:05:37;;;;;;;;;;;7.80;59.10;;;;;;4993906;28;19994;-61
2023/04/07 04:08:02;;;;;;;;;;;7.90;58.40;;;;;;4994096;28;20029;-63
2023/04/07 04:10:28;;;;;;;;;;;7.90;59.00;;;;;;4995959;28;20469;-63
2023/04/07 04:12:54;;;;;;;;;;;7.90;58.00;;;;;;4997239;28;20018;-62
2023/04/07 04:15:20;;;;;;;;;;;8.00;58.40;;;;;;4997413;28;19979;-61
2023/04/07 04:17:45;;;;;;;;;;;8.00;58.40;;;;;;4997588;28;19983;-62
2023/04/07 04:20:11;;;;;;;;;;;7.90;57.60;;;;;;4997533;28;20028;-61
2023/04/07 04:22:36;;;;;;;;;;;7.90;57.50;;;;;;4997328;28;20001;-62
2023/04/07 04:25:03;;;;;;;;;;;7.90;57.50;;;;;;4997216;28;20074;-62
2023/04/07 04:27:29;;;;;;;;;;;7.90;58.20;;;;;;4997498;28;19982;-61
2023/04/07 04:29:54;;;;;;;;;;;8.00;57.90;;;;;;4997063;28;20472;-63
2023/04/07 04:32:20;;;;;;;;;;;8.00;57.00;;;;;;4997019;28;19990;-61
2023/04/07 04:34:45;;;;;;;;;;;8.00;57.70;;;;;;4997121;28;19979;-62
2023/04/07 04:37:11;;;;;;;;;;;7.90;58.00;;;;;;4997111;28;19982;-63
2023/04/07 04:39:37;;;;;;;;;;;7.90;57.10;;;;;;4996833;28;20077;-62
2023/04/07 04:42:02;;;;;;;;;;;8.00;57.00;;;;;;4996802;28;19978;-62
2023/04/07 04:44:29;;;;;;;;;;;8.10;56.60;;;;;;4997152;28;19986;-62
2023/04/07 04:46:55;;;;;;;;;;;8.10;56.20;;;;;;4996812;28;19983;-61
2023/04/07 04:49:20;;;;;;;;;;;8.10;55.70;;;;;;4996291;28;20101;-60
2023/04/07 04:51:46;;;;;;;;;;;8.10;56.00;;;;;;4996714;28;19984;-62
2023/04/07 04:54:11;;;;;;;;;;;8.20;55.80;;;;;;4996399;28;20033;-62
2023/04/07 04:56:37;;;;;;;;;;;8.10;56.20;;;;;;4996581;28;19987;-61
2023/04/07 04:59:03;;;;;;;;;;;8.10;56.90;;;;;;4996255;28;20066;-62
2023/04/07 05:01:28;;;;;;;;;;;8.10;56.30;;;;;;4996580;28;19986;-62
2023/04/07 05:03:54;;;;;;;;;;;8.10;57.30;;;;;;4995566;28;20001;-62
2023/04/07 05:06:20;;;;;;;;;;;8.10;57.20;;;;;;4996244;28;19998;-61
2023/04/07 05:08:45;;;;;;;;;;;8.20;56.40;;;;;;4996277;28;19978;-63
2023/04/07 05:11:11;;;;;;;;;;;8.20;56.00;;;;;;4996611;28;20452;-63
2023/04/07 05:13:36;;;;;;;;;;;8.20;56.70;;;;;;4995263;28;20018;-62
2023/04/07 05:16:02;;;;;;;;;;;8.30;55.70;;;;;;4994614;28;19986;-63
2023/04/07 05:18:28;;;;;;;;;;;8.20;55.80;;;;;;4994737;28;20464;-63
2023/04/07 05:20:53;;;;;;;;;;;8.20;55.50;;;;;;4983027;28;20345;-61
2023/04/07 05:23:19;;;;;;;;;;;8.10;55.60;;;;;;4985519;28;19980;-62
2023/04/07 05:25:45;;;;;;;;;;;8.10;56.10;;;;;;4984784;28;19986;-62
2023/04/07 05:28:10;;;;;;;;;;;8.10;55.80;;;;;;4983981;28;20360;-61
2023/04/07 05:30:36;;;;;;;;;;;8.10;55.60;;;;;;4985648;28;20005;-62
2023/04/07 05:33:01;;;;;;;;;;;8.10;55.80;;;;;;4984380;28;19983;-63
2023/04/07 05:35:27;;;;;;;;;;;8.10;55.70;;;;;;4984427;28;19978;-63
2023/04/07 05:37:52;;;;;;;;;;;8.20;55.40;;;;;;4982217;28;20413;-63
2023/04/07 05:40:19;;;;;;;;;;;8.30;55.20;;;;;;4975406;28;19983;-64
2023/04/07 05:42:44;;;;;;;;;;;8.30;55.20;;;;;;4974482;28;19979;-63
2023/04/07 05:45:10;;;;;;;;;;;8.40;54.60;;;;;;4974273;28;20010;-64
2023/04/07 05:47:36;;;;;;;;;;;8.50;54.10;;;;;;4974223;28;20070;-65
2023/04/07 05:50:01;;;;;;;;;;;8.50;54.30;;;;;;4974315;28;20346;-63
2023/04/07 05:52:27;;;;;;;;;;;8.50;54.90;;;;;;4973710;28;20045;-63
2023/04/07 05:54:53;;;;;;;;;;;8.50;54.00;;;;;;4973561;28;19979;-65
2023/04/07 05:57:18;;;;;;;;;;;8.60;54.10;;;;;;4973833;28;20534;-64
2023/04/07 05:59:44;;;;;;;;;;;8.70;53.90;;;;;;4972483;28;19983;-65
2023/04/07 06:02:10;;;;;;;;;;;8.80;53.20;;;;;;4974220;28;20069;-64
2023/04/07 06:04:38;;;;;;;;;;;8.80;53.40;;;;;;4974093;28;19994;-64
2023/04/07 06:07:04;;;;;;;;;;;8.80;54.40;;;;;;4973995;28;19987;-62
2023/04/07 06:09:29;;;;;;;;;;;8.70;52.70;;;;;;4976742;28;20051;-62
2023/04/07 06:11:56;;;;;;;;;;;8.80;53.00;;;;;;4990111;28;20026;-66
2023/04/07 06:14:22;;;;;;;;;;;8.70;53.20;;;;;;4993511;28;20350;-64
2023/04/07 06:16:47;;;;;;;;;;;8.90;52.80;;;;;;4993204;28;19982;-65
2023/04/07 06:19:13;;;;;;;;;;;9.00;53.40;;;;;;4992497;28;19987;-63
2023/04/07 06:21:38;;;;;;;;;;;9.10;52.80;;;;;;4973780;28;19986;-64
2023/04/07 06:24:05;;;;;;;;;;;9.20;51.90;;;;;;4971704;28;19986;-65
2023/04/07 06:26:31;;;;;;;;;;;9.30;52.00;;;;;;4977474;28;19986;-63
2023/04/07 06:28:57;;;;;;;;;;;9.30;51.30;;;;;;4985059;28;20065;-63
2023/04/07 06:31:22;;;;;;;;;;;9.40;51.60;;;;;;4983302;28;19982;-63
2023/04/07 06:33:48;;;;;;;;;;;9.50;51.10;;;;;;4983911;28;19993;-62
2023/04/07 06:36:13;;;;;;;;;;;9.50;50.90;;;;;;4983271;28;20018;-61
2023/04/07 06:38:39;;;;;;;;;;;9.50;52.20;;;;;;4982021;28;19982;-63
2023/04/07 06:41:05;;;;;;;;;;;9.60;50.90;;;;;;4988297;28;19989;-65
2023/04/07 06:43:30;;;;;;;;;;;9.60;49.80;;;;;;4981512;28;20473;-62
2023/04/07 06:45:56;;;;;;;;;;;9.80;50.20;;;;;;4983809;28;20006;-60
2023/04/07 06:48:29;;;;;;;;;;;9.80;49.70;;;;;;4980757;28;19983;-62
2023/04/07 06:50:54;;;;;;;;;;;9.60;48.70;;;;;;4980250;28;20066;-63
2023/04/07 06:53:20;;;;;;;;;;;9.40;49.10;;;;;;4979150;28;20430;-62
2023/04/07 06:55:46;;;;;;;;;;;9.30;49.20;;;;;;4973413;28;19978;-62
2023/04/07 06:58:12;;;;;;;;;;;9.40;49.60;;;;;;4987597;28;19991;-61
2023/04/07 07:00:37;;;;;;;;;;;9.50;50.30;;;;;;4988320;28;19994;-57
2023/04/07 07:03:03;;;;;;;;;;;9.60;48.60;;;;;;4980768;28;20342;-62
2023/04/07 07:05:28;;;;;;;;;;;9.80;47.90;;;;;;4988337;28;20419;-61
2023/04/07 07:07:54;;;;;;;;;;;9.80;47.60;;;;;;4983491;28;19987;-60
2023/04/07 07:10:21;;;;;;;;;;;9.70;48.30;;;;;;4986719;28;20029;-61
2023/04/07 07:12:47;;;;;;;;;;;9.80;48.70;;;;;;4986706;28;20010;-61
2023/04/07 07:15:13;;;;;;;;;;;10.00;47.10;;;;;;4987607;28;19990;-61
2023/04/07 07:17:39;;;;;;;;;;;10.30;47.40;;;;;;4989496;28;20387;-61
2023/04/07 07:20:05;;;;;;;;;;;10.50;45.90;;;;;;4982972;28;19983;-63
2023/04/07 07:22:31;;;;;;;;;;;10.60;45.60;;;;;;4983690;28;20345;-62
2023/04/07 07:24:56;;;;;;;;;;;10.60;46.00;;;;;;4983311;28;19983;-63
2023/04/07 07:27:22;;;;;;;;;;;10.60;47.20;;;;;;4990163;28;20356;-60
2023/04/07 07:29:47;;;;;;;;;;;10.50;45.60;;;;;;4987883;28;20060;-60
2023/04/07 07:32:13;;;;;;;;;;;10.50;46.30;;;;;;4990691;28;20095;-59
2023/04/07 07:34:39;;;;;;;;;;;10.50;46.20;;;;;;4990019;28;19987;-62
2023/04/07 07:37:04;;;;;;;;;;;10.30;45.20;;;;;;4986356;28;20015;-62
2023/04/07 07:39:30;;;;;;;;;;;10.30;47.00;;;;;;4975685;28;19990;-63
2023/04/07 07:41:56;;;;;;;;;;;10.30;46.30;;;;;;4983290;28;20013;-62
2023/04/07 07:44:24;;;;;;;;;;;10.20;46.50;;;;;;4986513;28;19993;-62
2023/04/07 07:46:51;;;;;;;;;;;10.10;46.70;;;;;;4993676;28;19986;-64
2023/04/07 07:49:16;;;;;;;;;;;10.20;47.10;;;;;;4991563;28;20007;-62
2023/04/07 07:51:42;;;;;;;;;;;10.20;46.30;;;;;;4991313;28;20434;-64
2023/04/07 07:54:08;;;;;;;;;;;10.20;47.80;;;;;;4993361;28;20014;-62
2023/04/07 07:56:34;;;;;;;;;;;10.30;47.50;;;;;;4989042;28;20009;-65
2023/04/07 07:58:59;;;;;;;;;;;10.40;48.60;;;;;;4990494;28;19987;-62
2023/04/07 08:01:25;;;;;;;;;;;10.40;45.50;;;;;;4987854;28;20452;-63
2023/04/07 08:03:50;;;;;;;;;;;10.60;45.80;;;;;;4985547;28;20014;-63
2023/04/07 08:06:17;;;;;;;;;;;10.80;47.80;;;;;;4985316;28;20010;-65
2023/04/07 08:08:42;;;;;;;;;;;10.70;47.00;;;;;;4986823;28;19986;-62
2023/04/07 08:11:09;;;;;;;;;;;10.60;45.10;;;;;;4986124;28;19983;-65
2023/04/07 08:13:35;;;;;;;;;;;10.70;46.40;;;;;;4984256;28;20065;-63
2023/04/07 08:16:01;;;;;;;;;;;10.90;45.80;;;;;;4986961;28;20018;-64
2023/04/07 08:18:26;;;;;;;;;;;10.90;46.70;;;;;;4986294;28;19982;-62
2023/04/07 08:20:52;;;;;;;;;;;10.80;45.20;;;;;;4984248;28;20077;-63
2023/04/07 08:23:18;;;;;;;;;;;10.80;44.40;;;;;;4981138;28;20090;-62
2023/04/07 08:25:45;;;;;;;;;;;10.80;46.20;;;;;;4990065;28;20014;-64
2023/04/07 08:28:11;;;;;;;;;;;10.60;46.60;;;;;;4988726;28;20022;-62
2023/04/07 08:30:40;;;;;;;;;;;10.80;45.30;;;;;;4988103;28;20017;-62
2023/04/07 08:33:06;;;;;;;;;;;10.80;44.10;;;;;;4986455;28;20385;-63
2023/04/07 08:35:31;;;;;;;;;;;10.80;44.30;;;;;;4986980;28;20008;-62
2023/04/07 08:37:59;;;;;;;;;;;11.00;44.90;;;;;;4985493;28;20429;-69
2023/04/07 08:40:34;;;;;;;;;;;11.10;44.20;;;;;;4986122;28;20077;-63
2023/04/07 08:43:03;;;;;;;;;;;11.10;45.40;;;;;;4986426;28;19982;-64
2023/04/07 08:45:41;;;;;;;;;;;11.20;44.60;;;;;;4979857;28;20070;-65
2023/04/07 08:48:12;;;;;;;;;;;11.20;44.50;;;;;;4981269;28;20006;-64
2023/04/07 08:50:39;;;;;;;;;;;11.10;43.10;;;;;;4985231;28;20297;-63
2023/04/07 08:53:06;;;;;;;;;;;11.40;45.10;;;;;;4979211;28;19982;-62
2023/04/07 08:55:48;;;;;;;;;;;11.50;44.60;;;;;;4979596;28;19987;-63
2023/04/07 08:58:14;;;;;;;;;;;11.60;43.90;;;;;;4990468;28;20459;-63
2023/04/07 09:00:44;;;;;;;;;;;11.60;45.10;;;;;;4988694;28;20716;-62
2023/04/07 09:03:18;;;;;;;;;;;11.70;43.10;;;;;;4988151;28;20058;-63
2023/04/07 09:05:45;;;;;;;;;;;11.90;44.10;;;;;;4988047;28;19998;-63
2023/04/07 09:08:11;;;;;;;;;;;12.10;45.40;;;;;;4989546;28;19985;-63
2023/04/07 09:10:37;;;;;;;;;;;12.10;42.80;;;;;;4989178;28;20006;-62
2023/04/07 09:13:02;;;;;;;;;;;12.10;42.10;;;;;;4989258;28;20025;-62
2023/04/07 09:15:31;;;;;;;;;;;11.70;42.10;;;;;;4990192;28;19986;-62
2023/04/07 09:17:58;;;;;;;;;;;11.70;44.30;;;;;;4992056;28;20057;-62
2023/04/07 09:20:24;;;;;;;;;;;11.80;43.60;;;;;;4993038;28;19979;-62
2023/04/07 09:22:49;;;;;;;;;;;11.90;43.00;;;;;;4993507;28;20033;-63
2023/04/07 09:25:16;;;;;;;;;;;11.60;43.10;;;;;;4993714;28;20344;-63
2023/04/07 09:27:55;;;;;;;;;;;11.40;42.70;;;;;;4993988;28;19986;-62
2023/04/07 09:30:20;;;;;;;;;;;11.50;43.20;;;;;;4994399;28;20422;-64
2023/04/07 09:32:46;;;;;;;;;;;11.60;42.50;;;;;;4993871;28;20009;-63
2023/04/07 09:35:12;;;;;;;;;;;11.70;45.20;;;;;;4994059;28;19985;-62
2023/04/07 09:37:37;;;;;;;;;;;11.70;42.30;;;;;;4993486;28;20022;-65
2023/04/07 09:40:03;;;;;;;;;;;11.70;42.80;;;;;;4993557;28;20340;-63
2023/04/07 09:42:34;;;;;;;;;;;11.80;44.40;;;;;;4985283;28;19990;-61
2023/04/07 09:45:00;;;;;;;;;;;12.00;47.10;;;;;;4991736;28;19983;-62
2023/04/07 09:47:29;;;;;;;;;;;12.20;44.40;;;;;;4989842;28;20390;-65
2023/04/07 09:49:55;;;;;;;;;;;12.40;43.90;;;;;;4992907;28;20003;-64
2023/04/07 09:52:25;;;;;;;;;;;12.60;44.50;;;;;;4993132;28;19987;-63
2023/04/07 09:54:51;;;;;;;;;;;12.80;42.80;;;;;;4989585;28;19998;-66
2023/04/07 09:57:17;;;;;;;;;;;12.80;44.10;;;;;;4983705;28;20335;-62
2023/04/07 09:59:43;;;;;;;;;;;12.80;43.60;;;;;;4992260;28;19986;-64
2023/04/07 10:02:12;;;;;;;;;;;13.10;43.30;;;;;;4991486;28;19983;-62
2023/04/07 10:05:08;;;;;;;;;;;13.10;43.90;;;;;;4989505;28;20097;-62
2023/04/07 10:07:34;;;;;;;;;;;13.20;43.30;;;;;;4977393;28;19983;-64
2023/04/07 10:10:00;;;;;;;;;;;13.40;44.20;;;;;;4990147;28;20007;-63
2023/04/07 10:12:26;;;;;;;;;;;13.50;41.60;;;;;;4987542;28;20010;-63
2023/04/07 10:14:56;;;;;;;;;;;13.30;42.00;;;;;;4986033;28;20407;-65
2023/04/07 10:17:22;;;;;;;;;;;13.40;41.30;;;;;;4992203;28;20041;-62
2023/04/07 10:19:49;;;;;;;;;;;13.50;42.00;;;;;;4987293;28;20044;-63
2023/04/07 10:22:16;;;;;;;;;;;13.50;41.90;;;;;;4983765;28;20078;-62
2023/04/07 10:24:50;;;;;;;;;;;13.80;42.30;;;;;;4984202;28;19987;-62
2023/04/07 10:27:48;;;;;;;;;;;13.50;40.30;;;;;;4990708;28;20085;-65
2023/04/07 10:30:17;;;;;;;;;;;13.60;42.50;;;;;;4971477;28;20041;-62
2023/04/07 10:32:50;;;;;;;;;;;13.60;41.70;;;;;;4997439;28;20027;-66
2023/04/07 10:35:16;;;;;;;;;;;13.20;40.50;;;;;;4988523;28;20416;-63
2023/04/07 10:38:22;;;;;;;;;;;;;;;;;;;;;
2023/04/07 10:40:47;;;;;;;;;;;12.70;42.10;;;;;;4982100;28;19989;-63
2023/04/07 10:43:33;;;;;;;;;;;12.50;43.10;;;;;;4983330;28;19986;-65
2023/04/07 10:45:58;;;;;;;;;;;12.20;41.90;;;;;;4989081;28;19982;-63
2023/04/07 10:48:25;;;;;;;;;;;12.10;43.30;;;;;;4989162;28;20140;-64
2023/04/07 10:51:06;;;;;;;;;;;12.10;43.50;;;;;;4989796;28;20003;-64
2023/04/07 10:53:35;;;;;;;;;;;12.20;43.30;;;;;;4989989;28;20441;-62
2023/04/07 10:56:01;;;;;;;;;;;12.20;43.80;;;;;;4985503;28;19982;-63
2023/04/07 10:58:30;;;;;;;;;;;12.20;44.70;;;;;;4991073;28;19983;-63
2023/04/07 11:00:56;;;;;;;;;;;12.20;44.40;;;;;;4991556;28;20352;-63
2023/04/07 11:03:22;;;;;;;;;;;12.20;44.30;;;;;;4990630;28;20365;-64
2023/04/07 11:05:47;;;;;;;;;;;12.40;43.90;;;;;;4984404;28;20003;-63
2023/04/07 11:08:13;;;;;;;;;;;12.20;42.90;;;;;;4987145;28;20136;-63
2023/04/07 11:10:38;;;;;;;;;;;12.20;44.10;;;;;;4990362;28;20350;-61
2023/04/07 11:13:05;;;;;;;;;;;12.20;42.80;;;;;;4989726;28;20014;-63
2023/04/07 11:15:32;;;;;;;;;;;12.30;42.70;;;;;;4985720;28;20346;-64
2023/04/07 11:18:08;;;;;;;;;;;12.30;41.10;;;;;;4986628;28;20203;-64
2023/04/07 11:20:40;;;;;;;;;;;12.40;41.00;;;;;;4988087;28;19986;-66
2023/04/07 11:23:06;;;;;;;;;;;12.70;42.60;;;;;;4969447;28;20073;-62
2023/04/07 11:25:32;;;;;;;;;;;13.00;43.40;;;;;;4988661;28;20093;-62
2023/04/07 11:27:58;;;;;;;;;;;13.10;43.40;;;;;;4990507;28;19979;-66
2023/04/07 11:30:24;;;;;;;;;;;13.20;40.10;;;;;;4992909;28;20003;-64
2023/04/07 11:32:50;;;;;;;;;;;13.10;40.20;;;;;;4992652;28;19979;-65
2023/04/07 11:35:15;;;;;;;;;;;12.90;41.10;;;;;;4990039;28;20044;-66
2023/04/07 11:37:42;;;;;;;;;;;12.70;41.40;;;;;;4987581;28;20030;-65
2023/04/07 11:40:07;;;;;;;;;;;12.90;41.00;;;;;;4988958;28;20441;-67
2023/04/07 11:42:33;;;;;;;;;;;13.00;41.40;;;;;;4991733;28;19985;-68
2023/04/07 11:44:59;;;;;;;;;;;12.90;40.40;;;;;;4990734;28;20005;-66
2023/04/07 11:47:34;;;;;;;;;;;13.00;41.30;;;;;;4990444;28;20073;-66
2023/04/07 11:50:00;;;;;;;;;;;13.20;39.70;;;;;;4984070;28;20407;-64
2023/04/07 11:52:26;;;;;;;;;;;13.50;40.60;;;;;;4992319;28;19979;-64
2023/04/07 11:54:52;;;;;;;;;;;13.60;40.80;;;;;;4991652;28;19979;-69
2023/04/07 11:57:24;;;;;;;;;;;13.80;38.80;;;;;;4992494;28;20437;-62
2023/04/07 11:59:50;;;;;;;;;;;13.90;40.20;;;;;;4993568;28;20456;-67
2023/04/07 12:02:34;;;;;;;;;;;13.90;40.20;;;;;;4993138;28;20022;-64
2023/04/07 12:05:00;;;;;;;;;;;13.80;39.90;;;;;;4992983;28;19990;-64
2023/04/07 12:07:25;;;;;;;;;;;13.70;40.80;;;;;;4992836;28;19999;-63
2023/04/07 12:09:52;;;;;;;;;;;13.90;40.30;;;;;;4987669;28;20013;-62
2023/04/07 12:12:25;;;;;;;;;;;13.80;37.70;;;;;;4989184;28;20019;-60
2023/04/07 12:14:51;;;;;;;;;;;13.50;37.50;;;;;;4989449;28;19979;-63
2023/04/07 12:17:23;;;;;;;;;;;13.30;37.80;;;;;;4991090;28;20041;-62
2023/04/07 12:19:49;;;;;;;;;;;13.40;37.80;;;;;;4988784;28;20015;-62
2023/04/07 12:22:15;;;;;;;;;;;13.10;39.50;;;;;;4990218;28;19991;-62
2023/04/07 12:24:40;;;;;;;;;;;13.00;39.30;;;;;;4988667;28;19985;-62
2023/04/07 12:27:06;;;;;;;;;;;12.80;38.90;;;;;;4988950;28;19982;-62
2023/04/07 12:29:32;;;;;;;;;;;12.60;39.80;;;;;;4988977;28;20290;-63
2023/04/07 12:31:58;;;;;;;;;;;12.70;39.50;;;;;;4991181;28;19990;-63
2023/04/07 12:34:23;;;;;;;;;;;12.50;40.40;;;;;;4993204;28;20339;-62
2023/04/07 12:36:49;;;;;;;;;;;12.40;40.00;;;;;;4995578;28;20001;-61
2023/04/07 12:39:16;;;;;;;;;;;12.40;39.30;;;;;;4994671;28;19983;-62
2023/04/07 12:41:42;;;;;;;;;;;12.50;39.50;;;;;;4996531;28;20069;-61
2023/04/07 12:44:08;;;;;;;;;;;12.70;39.60;;;;;;4996490;28;20514;-62
2023/04/07 12:46:34;;;;;;;;;;;13.00;39.00;;;;;;4996076;28;19979;-61
2023/04/07 12:48:59;;;;;;;;;;;13.10;39.00;;;;;;4995872;28;19983;-62
2023/04/07 12:51:25;;;;;;;;;;;13.10;39.60;;;;;;4996390;28;20487;-62
2023/04/07 12:53:53;;;;;;;;;;;13.20;38.90;;;;;;4995927;28;20022;-62
2023/04/07 12:56:18;;;;;;;;;;;13.30;38.90;;;;;;4996154;28;20329;-62
2023/04/07 12:58:44;;;;;;;;;;;13.50;38.70;;;;;;4995997;28;19983;-62
2023/04/07 13:01:10;;;;;;;;;;;13.60;40.30;;;;;;4996302;28;20078;-63
2023/04/07 13:03:36;;;;;;;;;;;13.60;41.60;;;;;;4996884;28;19983;-63
2023/04/07 13:06:03;;;;;;;;;;;13.70;39.90;;;;;;4996375;28;19998;-61
2023/04/07 13:08:29;;;;;;;;;;;13.50;38.90;;;;;;4996278;28;19983;-62
2023/04/07 13:10:55;;;;;;;;;;;13.50;41.10;;;;;;4996340;28;20065;-61
2023/04/07 13:13:20;;;;;;;;;;;13.60;39.60;;;;;;4996161;28;20022;-61
2023/04/07 13:15:47;;;;;;;;;;;13.80;40.10;;;;;;4996591;28;19998;-61
2023/04/07 13:18:13;;;;;;;;;;;13.90;39.00;;;;;;4996558;28;20345;-61
2023/04/07 13:20:38;;;;;;;;;;;14.00;42.80;;;;;;4996275;28;19989;-63
2023/04/07 13:23:04;;;;;;;;;;;13.90;38.70;;;;;;4995997;28;19979;-62
2023/04/07 13:25:30;;;;;;;;;;;13.70;38.80;;;;;;4996140;28;19978;-61
2023/04/07 13:27:56;;;;;;;;;;;13.60;38.60;;;;;;4996121;28;20500;-62
2023/04/07 13:30:21;;;;;;;;;;;13.50;38.00;;;;;;4995896;28;20003;-61
2023/04/07 13:32:49;;;;;;;;;;;13.50;38.30;;;;;;4996054;28;20025;-63
2023/04/07 13:35:16;;;;;;;;;;;13.60;37.70;;;;;;4996071;28;19979;-62
2023/04/07 13:37:41;;;;;;;;;;;13.60;38.20;;;;;;4995709;28;20429;-63
2023/04/07 13:40:07;;;;;;;;;;;13.50;39.10;;;;;;4995892;28;19989;-62
2023/04/07 13:42:33;;;;;;;;;;;13.50;40.10;;;;;;4994971;28;19986;-63
2023/04/07 13:44:58;;;;;;;;;;;13.70;39.80;;;;;;4995621;28;19982;-61
2023/04/07 13:47:25;;;;;;;;;;;13.90;41.20;;;;;;4995875;28;19978;-63
2023/04/07 13:49:50;;;;;;;;;;;13.80;40.30;;;;;;4995736;28;20093;-62
2023/04/07 13:52:16;;;;;;;;;;;13.70;37.40;;;;;;4995409;28;19983;-62
2023/04/07 13:54:42;;;;;;;;;;;13.60;38.30;;;;;;4995776;28;20402;-63
2023/04/07 13:57:08;;;;;;;;;;;13.80;36.50;;;;;;4995535;28;20081;-61
2023/04/07 13:59:34;;;;;;;;;;;13.70;37.20;;;;;;4995806;28;20069;-61
2023/04/07 14:01:59;;;;;;;;;;;13.80;38.10;;;;;;4995361;28;20331;-62
2023/04/07 14:04:26;;;;;;;;;;;13.90;36.80;;;;;;4995394;28;20026;-63
2023/04/07 14:06:52;;;;;;;;;;;13.80;37.60;;;;;;4995129;28;19999;-62
2023/04/07 14:09:17;;;;;;;;;;;13.70;38.30;;;;;;4995152;28;20010;-62
2023/04/07 14:11:43;;;;;;;;;;;13.60;38.20;;;;;;4995192;28;19986;-63
2023/04/07 14:14:08;;;;;;;;;;;13.50;38.90;;;;;;4995368;28;20039;-63
2023/04/07 14:16:34;;;;;;;;;;;13.40;37.90;;;;;;4995094;28;20029;-63
2023/04/07 14:18:59;;;;;;;;;;;13.50;37.80;;;;;;4995299;28;19983;-63
2023/04/07 14:21:27;;;;;;;;;;;13.60;37.40;;;;;;4995158;28;20371;-62